Terminal Aerodrome Forecast
Issued by NWS

Home | Current Version | Previous Version | Text Only | Print | Product List | Glossary On
Versions: 1 2 3 4 5 6 7 8 9 10 11 12 13 14
000
FTUS43 KICT 191100
TAFCNU
TAF
KCNU 191120Z 1912/2012 22008KT P6SM VCTS SCT040CB BKN080
     FM191500 23009KT P6SM SCT100 BKN200
     FM200100 18007KT P6SM SKC=

USA.gov is the U.S. government's official web portal to all federal, state and local government web resources and services.